sensor_id;sensor_type;location;lat;lon;timestamp;pressure;altitude;pressure_sealevel;temperature;humidity
50302;BME280;36550;50.472;19.744;2022-08-01T00:01:36;97817.41;;;16.60;81.32
50302;BME280;36550;50.472;19.744;2022-08-01T00:04:20;97822.43;;;16.59;81.23
50302;BME280;36550;50.472;19.744;2022-08-01T00:07:05;97820.09;;;16.55;81.29
50302;BME280;36550;50.472;19.744;2022-08-01T00:09:49;97822.23;;;16.53;81.25
50302;BME280;36550;50.472;19.744;2022-08-01T00:12:33;97816.66;;;16.54;81.27
50302;BME280;36550;50.472;19.744;2022-08-01T00:15:17;97821.17;;;16.54;81.23
50302;BME280;36550;50.472;19.744;2022-08-01T00:18:01;97822.20;;;16.55;81.30
50302;BME280;36550;50.472;19.744;2022-08-01T00:20:46;97816.38;;;16.56;81.24
50302;BME280;36550;50.472;19.744;2022-08-01T00:23:30;97816.62;;;16.57;81.21
50302;BME280;36550;50.472;19.744;2022-08-01T00:26:14;97815.84;;;16.57;81.16
50302;BME280;36550;50.472;19.744;2022-08-01T00:28:58;97812.92;;;16.55;81.17
50302;BME280;36550;50.472;19.744;2022-08-01T00:31:43;97814.25;;;16.55;81.26
50302;BME280;36550;50.472;19.744;2022-08-01T00:34:27;97814.01;;;16.52;81.10
50302;BME280;36550;50.472;19.744;2022-08-01T00:37:11;97810.10;;;16.47;80.98
50302;BME280;36550;50.472;19.744;2022-08-01T00:39:55;97810.64;;;16.44;81.00
50302;BME280;36550;50.472;19.744;2022-08-01T00:42:39;97813.84;;;16.43;81.07
50302;BME280;36550;50.472;19.744;2022-08-01T00:45:25;97818.83;;;16.45;81.15
50302;BME280;36550;50.472;19.744;2022-08-01T00:48:10;97814.86;;;16.45;81.13
50302;BME280;36550;50.472;19.744;2022-08-01T00:50:55;97815.13;;;16.46;81.13
50302;BME280;36550;50.472;19.744;2022-08-01T00:53:39;97815.13;;;16.46;81.14
50302;BME280;36550;50.472;19.744;2022-08-01T00:56:25;97817.81;;;16.43;81.10
50302;BME280;36550;50.472;19.744;2022-08-01T00:59:11;97823.66;;;16.40;81.04
50302;BME280;36550;50.472;19.744;2022-08-01T01:01:56;97816.25;;;16.40;81.13
50302;BME280;36550;50.472;19.744;2022-08-01T01:04:40;97826.33;;;16.38;81.09
50302;BME280;36550;50.472;19.744;2022-08-01T01:07:45;97823.14;;;16.35;81.02
50302;BME280;36550;50.472;19.744;2022-08-01T01:10:52;97824.22;;;16.34;81.07
50302;BME280;36550;50.472;19.744;2022-08-01T01:13:50;97828.20;;;16.32;80.97
50302;BME280;36550;50.472;19.744;2022-08-01T01:16:33;97827.17;;;16.30;81.04
50302;BME280;36550;50.472;19.744;2022-08-01T01:19:23;97829.52;;;16.32;81.18
50302;BME280;36550;50.472;19.744;2022-08-01T01:22:24;97828.77;;;16.26;80.97
50302;BME280;36550;50.472;19.744;2022-08-01T01:29:02;97834.88;;;16.24;81.13
50302;BME280;36550;50.472;19.744;2022-08-01T01:31:52;97834.63;;;16.21;81.00
50302;BME280;36550;50.472;19.744;2022-08-01T01:34:40;97834.63;;;16.21;80.98
50302;BME280;36550;50.472;19.744;2022-08-01T01:37:27;97833.58;;;16.19;81.03
50302;BME280;36550;50.472;19.744;2022-08-01T01:40:13;97834.15;;;16.16;80.97
50302;BME280;36550;50.472;19.744;2022-08-01T01:42:59;97835.47;;;16.16;81.00
50302;BME280;36550;50.472;19.744;2022-08-01T01:45:45;97842.09;;;16.16;80.99
50302;BME280;36550;50.472;19.744;2022-08-01T01:48:31;97840.77;;;16.13;80.91
50302;BME280;36550;50.472;19.744;2022-08-01T01:51:17;97847.41;;;16.11;80.84
50302;BME280;36550;50.472;19.744;2022-08-01T01:54:04;97843.98;;;16.10;80.99
50302;BME280;36550;50.472;19.744;2022-08-01T01:56:49;97845.03;;;16.12;81.13
50302;BME280;36550;50.472;19.744;2022-08-01T01:59:36;97846.36;;;16.09;80.91
50302;BME280;36550;50.472;19.744;2022-08-01T02:02:24;97845.06;;;16.07;80.95
50302;BME280;36550;50.472;19.744;2022-08-01T02:05:10;97845.06;;;16.07;80.90
50302;BME280;36550;50.472;19.744;2022-08-01T02:07:55;97844.25;;;16.06;80.89
50302;BME280;36550;50.472;19.744;2022-08-01T02:10:41;97841.09;;;16.04;80.91
50302;BME280;36550;50.472;19.744;2022-08-01T02:13:30;97840.58;;;16.05;80.97
50302;BME280;36550;50.472;19.744;2022-08-01T02:16:19;97832.88;;;16.06;81.06
50302;BME280;36550;50.472;19.744;2022-08-01T02:19:05;97832.88;;;16.06;81.06
50302;BME280;36550;50.472;19.744;2022-08-01T02:22:01;97837.13;;;16.07;80.97
50302;BME280;36550;50.472;19.744;2022-08-01T02:25:06;97838.72;;;16.05;80.98
50302;BME280;36550;50.472;19.744;2022-08-01T02:28:04;97834.72;;;16.08;81.15
50302;BME280;36550;50.472;19.744;2022-08-01T02:30:50;97840.81;;;16.06;81.02
50302;BME280;36550;50.472;19.744;2022-08-01T02:33:38;97837.39;;;16.05;80.97
50302;BME280;36550;50.472;19.744;2022-08-01T02:36:28;97843.22;;;16.02;80.81
50302;BME280;36550;50.472;19.744;2022-08-01T02:39:15;97842.16;;;16.01;80.84
50302;BME280;36550;50.472;19.744;2022-08-01T02:42:04;97844.03;;;16.00;80.83
50302;BME280;36550;50.472;19.744;2022-08-01T02:44:51;97839.00;;;15.98;80.86
50302;BME280;36550;50.472;19.744;2022-08-01T02:47:38;97839.01;;;16.01;80.96
50302;BME280;36550;50.472;19.744;2022-08-01T02:50:25;97841.11;;;16.02;80.98
50302;BME280;36550;50.472;19.744;2022-08-01T02:53:12;97839.03;;;15.93;80.74
50302;BME280;36550;50.472;19.744;2022-08-01T02:55:57;97841.16;;;15.91;80.79
50302;BME280;36550;50.472;19.744;2022-08-01T02:58:44;97839.34;;;15.84;80.72
50302;BME280;36550;50.472;19.744;2022-08-01T03:01:32;97840.16;;;15.85;80.88
50302;BME280;36550;50.472;19.744;2022-08-01T03:04:21;97844.37;;;15.88;80.98
50302;BME280;36550;50.472;19.744;2022-08-01T03:07:08;97846.45;;;15.91;81.02
50302;BME280;36550;50.472;19.744;2022-08-01T03:09:54;97835.33;;;15.94;81.01
50302;BME280;36550;50.472;19.744;2022-08-01T03:12:39;97838.24;;;15.93;80.85
50302;BME280;36550;50.472;19.744;2022-08-01T03:15:24;97842.48;;;15.94;80.83
50302;BME280;36550;50.472;19.744;2022-08-01T03:18:11;97836.37;;;15.93;80.82
50302;BME280;36550;50.472;19.744;2022-08-01T03:20:58;97839.84;;;15.91;80.71
50302;BME280;36550;50.472;19.744;2022-08-01T03:23:45;97834.56;;;15.89;80.60
50302;BME280;36550;50.472;19.744;2022-08-01T03:26:30;97834.59;;;15.84;80.50
50302;BME280;36550;50.472;19.744;2022-08-01T03:29:17;97833.58;;;15.77;80.26
50302;BME280;36550;50.472;19.744;2022-08-01T03:32:05;97838.05;;;15.71;80.30
50302;BME280;36550;50.472;19.744;2022-08-01T03:34:50;97837.28;;;15.66;80.37
50302;BME280;36550;50.472;19.744;2022-08-01T03:37:36;97841.52;;;15.64;80.48
50302;BME280;36550;50.472;19.744;2022-08-01T03:40:43;97836.52;;;15.63;80.70
50302;BME280;36550;50.472;19.744;2022-08-01T03:43:45;97843.39;;;15.66;80.75
50302;BME280;36550;50.472;19.744;2022-08-01T03:46:48;97839.14;;;15.65;80.69
50302;BME280;36550;50.472;19.744;2022-08-01T03:49:33;97835.45;;;15.66;80.79
50302;BME280;36550;50.472;19.744;2022-08-01T03:52:19;97844.41;;;15.68;80.91
50302;BME280;36550;50.472;19.744;2022-08-01T03:55:06;97844.41;;;15.68;80.91
50302;BME280;36550;50.472;19.744;2022-08-01T03:57:51;97857.64;;;15.68;80.79
50302;BME280;36550;50.472;19.744;2022-08-01T04:00:39;97854.46;;;15.71;80.75
50302;BME280;36550;50.472;19.744;2022-08-01T04:03:24;97860.28;;;15.78;80.86
50302;BME280;36550;50.472;19.744;2022-08-01T04:06:08;97850.42;;;15.91;80.94
50302;BME280;36550;50.472;19.744;2022-08-01T04:08:53;97853.54;;;16.04;80.96
50302;BME280;36550;50.472;19.744;2022-08-01T04:11:41;97857.48;;;16.09;80.69
50302;BME280;36550;50.472;19.744;2022-08-01T04:14:29;97854.57;;;16.10;80.54
50302;BME280;36550;50.472;19.744;2022-08-01T04:17:13;97861.67;;;16.15;80.56
50302;BME280;36550;50.472;19.744;2022-08-01T04:19:58;97865.09;;;16.23;80.58
50302;BME280;36550;50.472;19.744;2022-08-01T04:22:43;97872.22;;;16.25;80.27
50302;BME280;36550;50.472;19.744;2022-08-01T04:25:34;97866.38;;;16.26;80.13
50302;BME280;36550;50.472;19.744;2022-08-01T04:28:20;97870.36;;;16.26;80.04
50302;BME280;36550;50.472;19.744;2022-08-01T04:31:08;97871.87;;;16.37;79.95
50302;BME280;36550;50.472;19.744;2022-08-01T04:33:54;97870.21;;;16.49;79.86
50302;BME280;36550;50.472;19.744;2022-08-01T04:36:40;97867.50;;;16.57;79.97
50302;BME280;36550;50.472;19.744;2022-08-01T04:39:31;97865.05;;;16.65;80.06
50302;BME280;36550;50.472;19.744;2022-08-01T04:42:16;97865.23;;;16.77;79.99
50302;BME280;36550;50.472;19.744;2022-08-01T04:45:00;97862.50;;;16.87;79.79
50302;BME280;36550;50.472;19.744;2022-08-01T04:47:46;97861.64;;;16.94;79.55
50302;BME280;36550;50.472;19.744;2022-08-01T04:50:31;97867.18;;;16.98;79.12
50302;BME280;36550;50.472;19.744;2022-08-01T04:53:18;97867.14;;;17.03;79.03
50302;BME280;36550;50.472;19.744;2022-08-01T04:56:05;97865.50;;;17.09;79.18
50302;BME280;36550;50.472;19.744;2022-08-01T04:58:50;97865.97;;;17.14;78.76
50302;BME280;36550;50.472;19.744;2022-08-01T05:01:36;97869.59;;;17.23;78.70
50302;BME280;36550;50.472;19.744;2022-08-01T05:04:20;97862.41;;;17.26;78.37
50302;BME280;36550;50.472;19.744;2022-08-01T05:07:04;97863.09;;;17.37;78.17
50302;BME280;36550;50.472;19.744;2022-08-01T05:09:49;97864.54;;;17.51;78.40
50302;BME280;36550;50.472;19.744;2022-08-01T05:12:34;97867.28;;;17.65;78.33
50302;BME280;36550;50.472;19.744;2022-08-01T05:15:19;97871.89;;;17.78;78.16
50302;BME280;36550;50.472;19.744;2022-08-01T05:18:05;97869.92;;;17.92;77.95
50302;BME280;36550;50.472;19.744;2022-08-01T05:20:50;97871.42;;;17.98;77.62
50302;BME280;36550;50.472;19.744;2022-08-01T05:23:34;97871.38;;;18.00;77.31
50302;BME280;36550;50.472;19.744;2022-08-01T05:26:18;97873.64;;;18.09;77.20
50302;BME280;36550;50.472;19.744;2022-08-01T05:29:03;97869.38;;;18.11;76.60
50302;BME280;36550;50.472;19.744;2022-08-01T05:31:47;97870.64;;;18.16;76.64
50302;BME280;36550;50.472;19.744;2022-08-01T05:34:31;97869.96;;;18.27;76.79
50302;BME280;36550;50.472;19.744;2022-08-01T05:37:15;97871.25;;;18.49;76.83
50302;BME280;36550;50.472;19.744;2022-08-01T05:39:59;97868.70;;;18.74;76.81
50302;BME280;36550;50.472;19.744;2022-08-01T05:42:43;97865.63;;;19.02;76.20
50302;BME280;36550;50.472;19.744;2022-08-01T05:45:27;97869.30;;;19.20;75.37
50302;BME280;36550;50.472;19.744;2022-08-01T05:48:11;97872.65;;;19.39;75.53
50302;BME280;36550;50.472;19.744;2022-08-01T05:50:55;97876.77;;;19.76;74.81
50302;BME280;36550;50.472;19.744;2022-08-01T05:53:40;97872.69;;;20.06;74.48
50302;BME280;36550;50.472;19.744;2022-08-01T05:56:24;97875.28;;;20.45;73.62
50302;BME280;36550;50.472;19.744;2022-08-01T05:59:09;97878.69;;;20.82;73.30
50302;BME280;36550;50.472;19.744;2022-08-01T06:01:53;97880.52;;;20.95;73.23
50302;BME280;36550;50.472;19.744;2022-08-01T06:04:37;97879.05;;;20.89;72.23
50302;BME280;36550;50.472;19.744;2022-08-01T06:07:22;97880.70;;;20.76;71.54
50302;BME280;36550;50.472;19.744;2022-08-01T06:10:08;97888.00;;;20.73;71.43
50302;BME280;36550;50.472;19.744;2022-08-01T06:12:53;97884.77;;;20.85;71.89
50302;BME280;36550;50.472;19.744;2022-08-01T06:15:37;97888.27;;;20.94;71.82
50302;BME280;36550;50.472;19.744;2022-08-01T06:18:21;97886.44;;;21.04;71.46
50302;BME280;36550;50.472;19.744;2022-08-01T06:21:05;97889.20;;;21.21;71.44
50302;BME280;36550;50.472;19.744;2022-08-01T06:23:50;97891.50;;;21.25;70.94
50302;BME280;36550;50.472;19.744;2022-08-01T06:26:34;97886.08;;;21.28;70.86
50302;BME280;36550;50.472;19.744;2022-08-01T06:29:20;97884.52;;;21.27;70.82
50302;BME280;36550;50.472;19.744;2022-08-01T06:32:04;97887.03;;;21.32;71.22
50302;BME280;36550;50.472;19.744;2022-08-01T06:34:50;97884.31;;;21.34;70.74
50302;BME280;36550;50.472;19.744;2022-08-01T06:37:34;97875.45;;;21.37;70.85
50302;BME280;36550;50.472;19.744;2022-08-01T06:40:18;97874.20;;;21.43;71.04
50302;BME280;36550;50.472;19.744;2022-08-01T06:43:02;97885.89;;;21.47;71.03
50302;BME280;36550;50.472;19.744;2022-08-01T06:45:46;97886.37;;;21.49;70.77
50302;BME280;36550;50.472;19.744;2022-08-01T06:48:31;97883.56;;;21.54;70.54
50302;BME280;36550;50.472;19.744;2022-08-01T06:51:16;97889.30;;;21.59;70.35
50302;BME280;36550;50.472;19.744;2022-08-01T06:54:02;97888.69;;;21.62;70.10
50302;BME280;36550;50.472;19.744;2022-08-01T06:56:47;97886.88;;;21.68;69.97
50302;BME280;36550;50.472;19.744;2022-08-01T06:59:31;97886.88;;;21.68;69.97
50302;BME280;36550;50.472;19.744;2022-08-01T07:02:16;97887.22;;;21.76;69.79
50302;BME280;36550;50.472;19.744;2022-08-01T07:05:00;97895.03;;;21.83;69.51
50302;BME280;36550;50.472;19.744;2022-08-01T07:07:44;97895.52;;;21.85;69.17
50302;BME280;36550;50.472;19.744;2022-08-01T07:10:28;97889.05;;;21.86;68.93
50302;BME280;36550;50.472;19.744;2022-08-01T07:13:13;97890.86;;;21.88;68.51
50302;BME280;36550;50.472;19.744;2022-08-01T07:15:58;97893.08;;;21.95;68.61
50302;BME280;36550;50.472;19.744;2022-08-01T07:18:42;97894.80;;;22.00;68.39
50302;BME280;36550;50.472;19.744;2022-08-01T07:21:27;97894.36;;;22.06;68.23
50302;BME280;36550;50.472;19.744;2022-08-01T07:24:13;97892.26;;;22.15;68.49
50302;BME280;36550;50.472;19.744;2022-08-01T07:26:57;97891.77;;;22.21;67.79
50302;BME280;36550;50.472;19.744;2022-08-01T07:29:42;97897.16;;;22.30;67.84
50302;BME280;36550;50.472;19.744;2022-08-01T07:32:26;97893.62;;;22.32;67.26
50302;BME280;36550;50.472;19.744;2022-08-01T07:35:10;97899.38;;;22.37;66.90
50302;BME280;36550;50.472;19.744;2022-08-01T07:37:54;97899.76;;;22.41;66.86
50302;BME280;36550;50.472;19.744;2022-08-01T07:40:39;97899.52;;;22.49;66.79
50302;BME280;36550;50.472;19.744;2022-08-01T07:43:23;97903.31;;;22.57;66.46
50302;BME280;36550;50.472;19.744;2022-08-01T07:46:07;97897.96;;;22.57;65.37
50302;BME280;36550;50.472;19.744;2022-08-01T07:48:51;97894.27;;;22.64;65.86
50302;BME280;36550;50.472;19.744;2022-08-01T07:51:36;97895.03;;;22.73;65.82
50302;BME280;36550;50.472;19.744;2022-08-01T07:54:20;97881.87;;;22.74;64.43
50302;BME280;36550;50.472;19.744;2022-08-01T07:57:04;97888.01;;;22.75;64.39
50302;BME280;36550;50.472;19.744;2022-08-01T07:59:49;97883.77;;;22.82;64.40
50302;BME280;36550;50.472;19.744;2022-08-01T08:02:33;97875.48;;;22.90;64.45
50302;BME280;36550;50.472;19.744;2022-08-01T08:05:17;97880.33;;;22.97;64.09
50302;BME280;36550;50.472;19.744;2022-08-01T08:08:06;97881.59;;;22.99;64.29
50302;BME280;36550;50.472;19.744;2022-08-01T08:10:51;97883.95;;;23.10;64.05
50302;BME280;36550;50.472;19.744;2022-08-01T08:13:36;97879.45;;;23.16;63.09
50302;BME280;36550;50.472;19.744;2022-08-01T08:16:20;97875.33;;;23.19;62.38
50302;BME280;36550;50.472;19.744;2022-08-01T08:19:04;97884.32;;;23.23;60.53
50302;BME280;36550;50.472;19.744;2022-08-01T08:21:48;97885.34;;;23.24;60.59
50302;BME280;36550;50.472;19.744;2022-08-01T08:24:33;97887.04;;;23.29;59.77
50302;BME280;36550;50.472;19.744;2022-08-01T08:27:17;97887.79;;;23.38;60.49
50302;BME280;36550;50.472;19.744;2022-08-01T08:30:04;97882.91;;;23.55;61.10
50302;BME280;36550;50.472;19.744;2022-08-01T08:32:51;97886.03;;;23.81;58.71
50302;BME280;36550;50.472;19.744;2022-08-01T08:35:35;97883.47;;;23.99;58.79
50302;BME280;36550;50.472;19.744;2022-08-01T08:38:19;97886.88;;;24.24;58.24
50302;BME280;36550;50.472;19.744;2022-08-01T08:41:04;97890.44;;;24.49;57.80
50302;BME280;36550;50.472;19.744;2022-08-01T08:43:49;97891.92;;;24.73;57.25
50302;BME280;36550;50.472;19.744;2022-08-01T08:46:33;97894.45;;;24.97;55.96
50302;BME280;36550;50.472;19.744;2022-08-01T08:49:28;97890.55;;;25.07;55.57
50302;BME280;36550;50.472;19.744;2022-08-01T08:52:14;97895.89;;;25.28;55.56
50302;BME280;36550;50.472;19.744;2022-08-01T08:54:59;97895.91;;;25.46;54.47
50302;BME280;36550;50.472;19.744;2022-08-01T08:57:44;97898.59;;;25.65;54.14
50302;BME280;36550;50.472;19.744;2022-08-01T09:00:28;97891.52;;;25.79;54.23
50302;BME280;36550;50.472;19.744;2022-08-01T09:03:13;97895.44;;;25.87;53.88
50302;BME280;36550;50.472;19.744;2022-08-01T09:05:57;97894.09;;;25.87;52.85
50302;BME280;36550;50.472;19.744;2022-08-01T09:08:42;97897.02;;;25.95;53.27
50302;BME280;36550;50.472;19.744;2022-08-01T09:11:27;97894.63;;;26.11;53.91
50302;BME280;36550;50.472;19.744;2022-08-01T09:14:16;97892.70;;;26.30;53.61
50302;BME280;36550;50.472;19.744;2022-08-01T09:17:09;97892.09;;;26.43;52.71
50302;BME280;36550;50.472;19.744;2022-08-01T09:19:55;97890.48;;;26.48;51.92
50302;BME280;36550;50.472;19.744;2022-08-01T09:22:41;97890.78;;;26.59;52.01
50302;BME280;36550;50.472;19.744;2022-08-01T09:25:26;97896.59;;;26.74;51.68
50302;BME280;36550;50.472;19.744;2022-08-01T09:28:12;97891.77;;;26.95;51.36
50302;BME280;36550;50.472;19.744;2022-08-01T09:30:57;97898.44;;;27.23;51.47
50302;BME280;36550;50.472;19.744;2022-08-01T09:36:47;97899.23;;;27.72;51.30
50302;BME280;36550;50.472;19.744;2022-08-01T09:39:39;97892.98;;;27.93;50.31
50302;BME280;36550;50.472;19.744;2022-08-01T09:42:26;97882.73;;;27.99;48.40
50302;BME280;36550;50.472;19.744;2022-08-01T09:45:31;97883.16;;;28.11;48.62
50302;BME280;36550;50.472;19.744;2022-08-01T09:48:17;97882.23;;;28.22;48.81
50302;BME280;36550;50.472;19.744;2022-08-01T09:51:03;97884.80;;;28.35;48.56
50302;BME280;36550;50.472;19.744;2022-08-01T09:53:48;97886.08;;;28.51;47.81
50302;BME280;36550;50.472;19.744;2022-08-01T09:56:39;97889.77;;;28.72;47.34
50302;BME280;36550;50.472;19.744;2022-08-01T09:59:40;97889.17;;;28.92;45.98
50302;BME280;36550;50.472;19.744;2022-08-01T10:02:29;97892.70;;;29.06;46.58
50302;BME280;36550;50.472;19.744;2022-08-01T10:05:15;97896.36;;;29.27;46.13
50302;BME280;36550;50.472;19.744;2022-08-01T10:08:02;97898.36;;;29.43;45.98
50302;BME280;36550;50.472;19.744;2022-08-01T10:11:09;97894.78;;;29.49;44.13
50302;BME280;36550;50.472;19.744;2022-08-01T10:13:56;97892.30;;;29.50;44.22
50302;BME280;36550;50.472;19.744;2022-08-01T10:16:42;97889.53;;;29.60;44.38
50302;BME280;36550;50.472;19.744;2022-08-01T10:19:28;97894.91;;;29.69;43.14
50302;BME280;36550;50.472;19.744;2022-08-01T10:22:14;97903.64;;;29.59;43.20
50302;BME280;36550;50.472;19.744;2022-08-01T10:25:03;97893.34;;;29.68;43.54
50302;BME280;36550;50.472;19.744;2022-08-01T10:27:49;97893.48;;;29.75;42.71
50302;BME280;36550;50.472;19.744;2022-08-01T10:30:36;97893.34;;;29.68;42.17
50302;BME280;36550;50.472;19.744;2022-08-01T10:33:22;97891.11;;;29.61;41.50
50302;BME280;36550;50.472;19.744;2022-08-01T10:36:06;97889.37;;;29.49;40.85
50302;BME280;36550;50.472;19.744;2022-08-01T10:38:52;97891.23;;;29.31;41.58
50302;BME280;36550;50.472;19.744;2022-08-01T10:41:38;97889.77;;;29.24;41.95
50302;BME280;36550;50.472;19.744;2022-08-01T10:44:24;97889.48;;;29.20;41.68
50302;BME280;36550;50.472;19.744;2022-08-01T10:47:11;97883.24;;;29.15;41.79
50302;BME280;36550;50.472;19.744;2022-08-01T10:50:02;97884.94;;;29.24;42.19
50302;BME280;36550;50.472;19.744;2022-08-01T10:53:24;97888.89;;;29.30;41.60
50302;BME280;36550;50.472;19.744;2022-08-01T10:56:10;97891.05;;;29.44;40.69
50302;BME280;36550;50.472;19.744;2022-08-01T10:59:02;97889.02;;;29.50;40.84
50302;BME280;36550;50.472;19.744;2022-08-01T11:02:02;97896.59;;;29.54;41.45
50302;BME280;36550;50.472;19.744;2022-08-01T11:10:40;97890.94;;;29.50;41.29
50302;BME280;36550;50.472;19.744;2022-08-01T11:16:45;97897.37;;;29.42;41.08
50302;BME280;36550;50.472;19.744;2022-08-01T11:20:03;97896.66;;;29.58;41.72
50302;BME280;36550;50.472;19.744;2022-08-01T11:22:25;97898.75;;;29.68;40.31
50302;BME280;36550;50.472;19.744;2022-08-01T11:25:09;97898.12;;;29.75;40.38
50302;BME280;36550;50.472;19.744;2022-08-01T11:34:00;97891.31;;;30.02;39.72
50302;BME280;36550;50.472;19.744;2022-08-01T11:36:44;97893.83;;;30.01;40.10
50302;BME280;36550;50.472;19.744;2022-08-01T11:39:28;97890.95;;;30.03;39.59
50302;BME280;36550;50.472;19.744;2022-08-01T11:42:19;97894.44;;;30.04;39.56
50302;BME280;36550;50.472;19.744;2022-08-01T11:45:04;97893.59;;;30.13;39.80
50302;BME280;36550;50.472;19.744;2022-08-01T11:47:50;97892.53;;;30.04;38.74
50302;BME280;36550;50.472;19.744;2022-08-01T11:50:36;97893.30;;;30.05;38.83
50302;BME280;36550;50.472;19.744;2022-08-01T11:53:21;97889.48;;;30.09;38.63
50302;BME280;36550;50.472;19.744;2022-08-01T11:56:06;97890.03;;;30.22;38.19
50302;BME280;36550;50.472;19.744;2022-08-01T11:58:58;97895.74;;;30.13;37.56
50302;BME280;36550;50.472;19.744;2022-08-01T12:01:44;97885.52;;;30.17;38.81
50302;BME280;36550;50.472;19.744;2022-08-01T12:04:46;97880.16;;;30.34;38.69
50302;BME280;36550;50.472;19.744;2022-08-01T12:07:34;97881.61;;;30.41;38.45
50302;BME280;36550;50.472;19.744;2022-08-01T12:10:21;97884.95;;;30.47;38.98
50302;BME280;36550;50.472;19.744;2022-08-01T12:13:07;97882.05;;;30.46;38.76
50302;BME280;36550;50.472;19.744;2022-08-01T12:15:52;97874.44;;;30.42;38.40
50302;BME280;36550;50.472;19.744;2022-08-01T12:18:38;97875.98;;;30.26;38.50
50302;BME280;36550;50.472;19.744;2022-08-01T12:21:24;97878.70;;;30.26;38.51
50302;BME280;36550;50.472;19.744;2022-08-01T12:24:08;97881.77;;;30.25;39.28
50302;BME280;36550;50.472;19.744;2022-08-01T12:26:52;97884.78;;;30.33;39.47
50302;BME280;36550;50.472;19.744;2022-08-01T12:29:42;97884.78;;;30.33;39.47
50302;BME280;36550;50.472;19.744;2022-08-01T12:32:36;97880.50;;;30.32;38.83
50302;BME280;36550;50.472;19.744;2022-08-01T12:35:21;97891.27;;;30.11;38.50
50302;BME280;36550;50.472;19.744;2022-08-01T12:38:18;97889.67;;;29.93;38.80
50302;BME280;36550;50.472;19.744;2022-08-01T12:41:10;97886.36;;;29.77;39.10
50302;BME280;36550;50.472;19.744;2022-08-01T12:43:54;97881.78;;;29.58;38.95
50302;BME280;36550;50.472;19.744;2022-08-01T12:46:38;97884.67;;;29.32;38.87
50302;BME280;36550;50.472;19.744;2022-08-01T12:49:23;97885.02;;;29.08;38.57
50302;BME280;36550;50.472;19.744;2022-08-01T12:52:09;97880.74;;;28.84;38.43
50302;BME280;36550;50.472;19.744;2022-08-01T12:55:09;97878.12;;;28.68;38.67
50302;BME280;36550;50.472;19.744;2022-08-01T12:58:07;97878.34;;;28.59;39.17
50302;BME280;36550;50.472;19.744;2022-08-01T13:01:02;97879.20;;;28.53;39.40
50302;BME280;36550;50.472;19.744;2022-08-01T13:03:58;97871.09;;;28.44;39.50
50302;BME280;36550;50.472;19.744;2022-08-01T13:06:43;97868.33;;;28.30;39.72
50302;BME280;36550;50.472;19.744;2022-08-01T13:09:27;97869.89;;;28.12;39.53
50302;BME280;36550;50.472;19.744;2022-08-01T13:12:12;97861.27;;;27.96;39.66
50302;BME280;36550;50.472;19.744;2022-08-01T13:14:56;97873.29;;;27.83;39.96
50302;BME280;36550;50.472;19.744;2022-08-01T13:17:40;97867.66;;;27.72;41.13
50302;BME280;36550;50.472;19.744;2022-08-01T13:20:31;97863.22;;;27.64;41.67
50302;BME280;36550;50.472;19.744;2022-08-01T13:23:18;97862.51;;;27.57;41.72
50302;BME280;36550;50.472;19.744;2022-08-01T13:26:04;97857.53;;;27.50;41.92
50302;BME280;36550;50.472;19.744;2022-08-01T13:29:03;97863.30;;;27.42;42.08
50302;BME280;36550;50.472;19.744;2022-08-01T13:31:49;97855.52;;;27.31;42.82
50302;BME280;36550;50.472;19.744;2022-08-01T13:34:34;97851.02;;;27.13;42.78
50302;BME280;36550;50.472;19.744;2022-08-01T13:37:18;97855.55;;;27.08;42.92
50302;BME280;36550;50.472;19.744;2022-08-01T13:40:03;97846.83;;;27.05;42.93
50302;BME280;36550;50.472;19.744;2022-08-01T13:42:47;97854.73;;;26.98;43.43
50302;BME280;36550;50.472;19.744;2022-08-01T13:45:34;97853.41;;;26.92;43.41
50302;BME280;36550;50.472;19.744;2022-08-01T13:48:18;97850.76;;;26.86;43.45
50302;BME280;36550;50.472;19.744;2022-08-01T13:51:02;97856.48;;;26.84;42.97
50302;BME280;36550;50.472;19.744;2022-08-01T13:53:46;97858.65;;;26.79;43.52
50302;BME280;36550;50.472;19.744;2022-08-01T13:56:31;97853.03;;;26.78;43.57
50302;BME280;36550;50.472;19.744;2022-08-01T13:59:15;97859.08;;;26.81;43.68
50302;BME280;36550;50.472;19.744;2022-08-01T14:02:00;97855.00;;;26.87;44.29
50302;BME280;36550;50.472;19.744;2022-08-01T14:04:45;97858.59;;;26.91;44.30
50302;BME280;36550;50.472;19.744;2022-08-01T14:07:29;97860.32;;;26.99;44.23
50302;BME280;36550;50.472;19.744;2022-08-01T14:10:13;97857.70;;;27.09;44.51
50302;BME280;36550;50.472;19.744;2022-08-01T14:12:58;97857.94;;;27.26;44.28
50302;BME280;36550;50.472;19.744;2022-08-01T14:15:42;97858.82;;;27.40;44.04
50302;BME280;36550;50.472;19.744;2022-08-01T14:18:26;97868.00;;;27.45;43.67
50302;BME280;36550;50.472;19.744;2022-08-01T14:21:11;97876.19;;;27.58;43.89
50302;BME280;36550;50.472;19.744;2022-08-01T14:23:55;97872.39;;;27.69;43.69
50302;BME280;36550;50.472;19.744;2022-08-01T14:26:39;97872.06;;;27.80;43.69
50302;BME280;36550;50.472;19.744;2022-08-01T14:29:24;97875.05;;;27.75;43.02
50302;BME280;36550;50.472;19.744;2022-08-01T14:32:09;97880.22;;;27.74;43.09
50302;BME280;36550;50.472;19.744;2022-08-01T14:34:54;97875.91;;;27.79;43.21
50302;BME280;36550;50.472;19.744;2022-08-01T14:37:39;97875.72;;;27.88;43.79
50302;BME280;36550;50.472;19.744;2022-08-01T14:40:23;97878.80;;;27.80;43.68
50302;BME280;36550;50.472;19.744;2022-08-01T14:43:07;97879.72;;;27.78;43.60
50302;BME280;36550;50.472;19.744;2022-08-01T14:45:51;97885.34;;;27.79;43.65
50302;BME280;36550;50.472;19.744;2022-08-01T14:48:37;97887.55;;;27.83;43.67
50302;BME280;36550;50.472;19.744;2022-08-01T14:51:22;97888.51;;;27.91;43.50
50302;BME280;36550;50.472;19.744;2022-08-01T14:54:06;97888.16;;;27.93;43.46